createdAt,value
2018-03-27T00:01:45.983Z,62.13
2018-03-27T00:04:14.867Z,62.01
2018-03-27T00:06:43.999Z,62.17
2018-03-27T00:09:14.593Z,62.29
2018-03-27T00:11:43.553Z,62.41
2018-03-27T00:14:12.595Z,62.54
2018-03-27T00:16:41.803Z,62.22
2018-03-27T00:19:11.139Z,62.27
2018-03-27T00:21:42.826Z,62.43
2018-03-27T00:24:12.570Z,62.52
2018-03-27T00:26:50.277Z,62.52
2018-03-27T00:29:30.800Z,62.66
2018-03-27T00:32:11.243Z,62.85
2018-03-27T00:34:51.338Z,63.06
2018-03-27T00:37:31.637Z,63.58
2018-03-27T00:40:12.397Z,64.49
2018-03-27T00:42:41.761Z,65.29
2018-03-27T00:45:11.289Z,65.18
2018-03-27T00:47:40.582Z,65.79
2018-03-27T00:50:09.644Z,66.05
2018-03-27T00:52:38.592Z,65.64
2018-03-27T00:55:07.821Z,65.67
2018-03-27T00:57:36.830Z,65.42
2018-03-27T01:00:06.936Z,65.75
2018-03-27T01:02:36.243Z,65.75
2018-03-27T01:05:09.587Z,65.22
2018-03-27T01:07:38.633Z,65.12
2018-03-27T01:10:07.858Z,64.60
2018-03-27T01:12:36.809Z,64.41
2018-03-27T01:15:05.947Z,63.99
2018-03-27T01:17:37.066Z,64.24
2018-03-27T01:20:07.007Z,64.22
2018-03-27T01:22:36.045Z,64.65
2018-03-27T01:25:05.341Z,64.85
2018-03-27T01:27:34.551Z,65.67
2018-03-27T01:30:04.720Z,66.41
2018-03-27T01:32:34.030Z,66.78
2018-03-27T01:35:03.232Z,67.16
2018-03-27T01:37:32.155Z,67.27
2018-03-27T01:40:03.734Z,67.26
2018-03-27T01:42:32.677Z,67.27
2018-03-27T01:45:02.348Z,66.86
2018-03-27T01:47:31.544Z,66.92
2018-03-27T01:50:00.480Z,66.94
2018-03-27T01:52:29.438Z,66.36
2018-03-27T01:54:58.334Z,66.58
2018-03-27T01:57:27.270Z,66.59
2018-03-27T01:59:56.519Z,66.71
2018-03-27T02:02:25.507Z,66.82
2018-03-27T02:04:54.578Z,67.06
2018-03-27T02:07:23.838Z,66.72
2018-03-27T02:09:52.808Z,67.01
2018-03-27T02:12:26.855Z,66.61
2018-03-27T02:15:01.607Z,65.94
2018-03-27T02:17:35.954Z,66.62
2018-03-27T02:20:11.696Z,66.89
2018-03-27T02:22:40.932Z,67.37
2018-03-27T02:25:09.968Z,67.80
2018-03-27T02:27:39.260Z,68.05
2018-03-27T02:30:08.214Z,68.36
2018-03-27T02:32:37.223Z,68.19
2018-03-27T02:35:06.459Z,68.21
2018-03-27T02:37:35.383Z,68.36
2018-03-27T02:40:05.673Z,68.53
2018-03-27T02:42:35.590Z,68.57
2018-03-27T02:45:05.246Z,69.54
2018-03-27T02:47:34.297Z,70.02
2018-03-27T02:50:04.729Z,69.45
2018-03-27T02:52:33.706Z,69.56
2018-03-27T02:55:03.083Z,68.82
2018-03-27T02:57:33.063Z,68.72
2018-03-27T03:00:02.842Z,68.61
2018-03-27T03:02:31.838Z,68.48
2018-03-27T03:05:01.451Z,68.08
2018-03-27T03:07:30.782Z,68.22
2018-03-27T03:09:59.832Z,67.61
2018-03-27T03:12:29.156Z,66.45
2018-03-27T03:14:58.111Z,66.35
2018-03-27T03:17:27.086Z,64.38
2018-03-27T03:19:56.002Z,64.27
2018-03-27T03:22:24.895Z,63.61
2018-03-27T03:24:54.206Z,62.75
2018-03-27T03:27:23.175Z,62.41
2018-03-27T03:29:52.138Z,62.47
2018-03-27T03:32:21.511Z,61.71
2018-03-27T03:34:50.506Z,61.72
2018-03-27T03:37:19.501Z,62.13
2018-03-27T03:39:48.815Z,62.52
2018-03-27T03:42:17.879Z,63.31
2018-03-27T03:44:46.902Z,64.01
2018-03-27T03:47:15.892Z,64.35
2018-03-27T03:49:44.892Z,63.90
2018-03-27T03:52:14.337Z,64.17
2018-03-27T03:54:43.630Z,65.35
2018-03-27T03:57:12.787Z,65.56
2018-03-27T03:59:41.639Z,65.75
2018-03-27T04:02:10.806Z,66.20
2018-03-27T04:04:39.760Z,66.99
2018-03-27T04:07:09.006Z,66.93
2018-03-27T04:09:38.364Z,67.11
2018-03-27T04:12:07.384Z,67.68
2018-03-27T04:14:36.654Z,67.83
2018-03-27T04:17:05.633Z,67.92
2018-03-27T04:19:34.621Z,67.89
2018-03-27T04:22:06.196Z,68.11
2018-03-27T04:24:35.786Z,68.37
2018-03-27T04:27:05.794Z,68.66
2018-03-27T04:29:34.757Z,68.88
2018-03-27T04:32:04.825Z,69.39
2018-03-27T04:34:34.124Z,69.54
2018-03-27T04:37:03.938Z,70.03
2018-03-27T04:39:32.887Z,70.36
2018-03-27T04:42:03.009Z,71.11
2018-03-27T04:44:31.966Z,71.52
2018-03-27T04:47:00.981Z,71.78
2018-03-27T04:49:30.373Z,71.99
2018-03-27T04:51:59.328Z,72.20
2018-03-27T04:54:28.233Z,72.50
2018-03-27T04:56:57.460Z,72.66
2018-03-27T04:59:26.778Z,72.84
2018-03-27T05:01:55.844Z,73.27
2018-03-27T05:04:25.160Z,73.43
2018-03-27T05:06:54.153Z,73.52
2018-03-27T05:09:23.139Z,73.81
2018-03-27T05:11:52.174Z,73.83
2018-03-27T05:14:21.172Z,73.92
2018-03-27T05:16:50.488Z,74.15
2018-03-27T05:19:19.374Z,74.01
2018-03-27T05:21:48.380Z,73.96
2018-03-27T05:24:17.612Z,74.08
2018-03-27T05:26:46.550Z,74.17
2018-03-27T05:29:15.829Z,74.33
2018-03-27T05:31:45.116Z,74.39
2018-03-27T05:34:14.109Z,75.08
2018-03-27T05:36:43.073Z,75.20
2018-03-27T05:39:12.499Z,75.27
2018-03-27T05:41:41.500Z,75.36
2018-03-27T05:44:10.580Z,75.80
2018-03-27T05:46:39.776Z,76.29
2018-03-27T05:49:08.740Z,76.42
2018-03-27T05:51:37.610Z,76.63
2018-03-27T05:54:06.590Z,76.48
2018-03-27T05:56:35.582Z,76.83
2018-03-27T05:59:05.849Z,76.81
2018-03-27T06:01:34.752Z,77.14
2018-03-27T06:04:04.589Z,76.78
2018-03-27T06:06:33.922Z,76.89
2018-03-27T06:09:03.141Z,76.65
2018-03-27T06:11:32.167Z,76.23
2018-03-27T06:14:01.440Z,76.00
2018-03-27T06:16:30.490Z,76.06
2018-03-27T06:18:59.567Z,76.39
2018-03-27T06:21:28.892Z,76.42
2018-03-27T06:23:58.046Z,76.90
2018-03-27T06:26:27.051Z,76.96
2018-03-27T06:28:56.299Z,76.92
2018-03-27T06:31:25.384Z,76.57
2018-03-27T06:33:54.338Z,76.18
2018-03-27T06:36:23.237Z,75.72
2018-03-27T06:38:52.228Z,75.55
2018-03-27T06:41:21.427Z,75.39
2018-03-27T06:43:50.416Z,75.08
2018-03-27T06:46:19.995Z,74.67
2018-03-27T06:48:49.209Z,74.53
2018-03-27T06:51:18.220Z,74.40
2018-03-27T06:53:47.165Z,74.19
2018-03-27T06:56:16.426Z,74.02
2018-03-27T06:58:45.411Z,74.17
2018-03-27T07:01:15.925Z,74.62
2018-03-27T07:03:44.904Z,74.27
2018-03-27T07:06:14.449Z,74.00
2018-03-27T07:08:43.475Z,74.30
2018-03-27T07:11:12.700Z,74.22
2018-03-27T07:13:41.663Z,74.01
2018-03-27T07:16:10.748Z,73.91
2018-03-27T07:18:39.746Z,73.20
2018-03-27T07:21:08.686Z,72.79
2018-03-27T07:23:37.979Z,72.89
2018-03-27T07:26:06.949Z,72.50
2018-03-27T07:31:35.859Z,71.39
2018-03-27T07:34:05.949Z,71.53
2018-03-27T07:36:34.906Z,71.25
2018-03-27T07:39:04.903Z,71.03
2018-03-27T07:41:33.887Z,70.05
2018-03-27T07:44:03.302Z,70.60
2018-03-27T07:46:32.263Z,70.43
2018-03-27T07:49:02.120Z,69.55
2018-03-27T07:51:31.790Z,69.61
2018-03-27T07:54:01.035Z,68.73
2018-03-27T07:56:30.187Z,68.77
2018-03-27T07:58:59.337Z,68.04
2018-03-27T08:01:28.422Z,67.82
2018-03-27T08:03:57.375Z,67.62
2018-03-27T08:06:26.575Z,67.57
2018-03-27T08:08:55.489Z,66.44
2018-03-27T08:11:24.337Z,65.81
2018-03-27T08:13:53.663Z,65.41
2018-03-27T08:16:22.611Z,65.46
2018-03-27T08:18:52.130Z,65.08
2018-03-27T08:21:21.384Z,65.25
2018-03-27T08:23:50.974Z,64.88
2018-03-27T08:26:26.411Z,65.15
2018-03-27T08:28:55.472Z,65.10
2018-03-27T08:31:24.488Z,64.59
2018-03-27T08:33:53.807Z,63.84
2018-03-27T08:36:22.971Z,63.05
2018-03-27T08:38:51.918Z,62.52
2018-03-27T08:41:21.741Z,62.13
2018-03-27T08:43:50.888Z,61.94
2018-03-27T08:46:20.038Z,59.92
2018-03-27T08:48:49.479Z,56.41
2018-03-27T08:51:18.469Z,55.02
2018-03-27T08:53:47.412Z,53.46
2018-03-27T08:56:17.081Z,53.08
2018-03-27T08:58:46.147Z,51.89
2018-03-27T09:01:16.011Z,51.44
2018-03-27T09:03:45.293Z,51.79
2018-03-27T09:06:14.291Z,50.95
2018-03-27T09:08:43.941Z,50.93
2018-03-27T09:11:12.898Z,49.91
2018-03-27T09:13:41.867Z,50.35
2018-03-27T09:16:11.336Z,49.58
2018-03-27T09:18:40.328Z,50.74
2018-03-27T09:21:09.275Z,50.01
2018-03-27T09:23:38.817Z,48.74
2018-03-27T09:26:07.814Z,47.63
2018-03-27T09:28:36.871Z,46.56
2018-03-27T09:31:06.213Z,46.10
2018-03-27T09:33:35.275Z,46.92
2018-03-27T09:36:05.350Z,47.59
2018-03-27T09:38:34.621Z,48.52
2018-03-27T09:41:04.536Z,50.25
2018-03-27T09:43:33.451Z,50.32
2018-03-27T09:46:04.620Z,50.73
2018-03-27T09:48:35.802Z,51.53
2018-03-27T09:51:06.035Z,51.39
2018-03-27T09:53:35.138Z,51.83
2018-03-27T09:56:05.505Z,51.52
2018-03-27T09:58:34.812Z,51.46
2018-03-27T10:01:08.016Z,51.43
2018-03-27T10:03:36.941Z,51.21
2018-03-27T10:06:06.583Z,51.02
2018-03-27T10:08:35.563Z,50.69
2018-03-27T10:11:04.719Z,50.58
2018-03-27T10:13:34.071Z,50.11
2018-03-27T10:16:04.881Z,50.71
2018-03-27T10:18:34.310Z,50.16
2018-03-27T10:21:04.759Z,52.34
2018-03-27T10:23:33.746Z,52.66
2018-03-27T10:26:03.497Z,53.35
2018-03-27T10:28:32.658Z,53.32
2018-03-27T10:31:02.681Z,53.75
2018-03-27T10:33:32.766Z,53.42
2018-03-27T10:36:03.936Z,52.04
2018-03-27T10:38:33.145Z,52.18
2018-03-27T10:41:04.665Z,51.38
2018-03-27T10:43:33.643Z,51.23
2018-03-27T10:46:03.782Z,51.98
2018-03-27T10:48:34.135Z,53.04
2018-03-27T10:51:03.681Z,53.33
2018-03-27T10:53:32.803Z,52.52
2018-03-27T10:56:02.955Z,53.33
2018-03-27T10:58:31.836Z,53.19
2018-03-27T11:01:01.010Z,52.96
2018-03-27T11:03:30.272Z,53.04
2018-03-27T11:05:59.195Z,52.19
2018-03-27T11:08:28.259Z,51.60
2018-03-27T11:10:57.647Z,51.63
2018-03-27T11:13:26.588Z,51.92
2018-03-27T11:15:55.643Z,51.89
2018-03-27T11:18:24.638Z,52.04
2018-03-27T11:20:53.816Z,52.57
2018-03-27T11:23:23.165Z,52.92
2018-03-27T11:25:52.207Z,53.52
2018-03-27T11:28:21.224Z,53.71
2018-03-27T11:30:50.702Z,54.05
2018-03-27T11:33:19.711Z,54.71
2018-03-27T11:35:48.791Z,55.03
2018-03-27T11:38:18.120Z,55.19
2018-03-27T11:40:47.015Z,55.68
2018-03-27T11:43:16.011Z,55.72
2018-03-27T11:45:45.208Z,55.18
2018-03-27T11:48:14.300Z,55.39
2018-03-27T11:50:43.280Z,54.31
2018-03-27T11:53:13.205Z,53.68
2018-03-27T11:55:42.361Z,53.95
2018-03-27T11:58:14.073Z,53.28
2018-03-27T12:00:44.177Z,52.21
2018-03-27T12:03:14.531Z,51.82
2018-03-27T12:05:44.567Z,51.66
2018-03-27T12:08:14.099Z,51.19
2018-03-27T12:10:43.199Z,50.66
2018-03-27T12:13:12.833Z,50.20
2018-03-27T12:15:41.805Z,49.47
2018-03-27T12:18:11.089Z,48.43
2018-03-27T12:20:40.913Z,47.83
2018-03-27T12:23:09.954Z,46.61
2018-03-27T12:28:03.851Z,42.86
2018-03-27T12:30:33.365Z,40.71
2018-03-27T12:33:04.102Z,38.30
2018-03-27T12:35:33.619Z,36.65
2018-03-27T12:38:03.403Z,35.40
2018-03-27T12:40:32.463Z,34.80
2018-03-27T12:43:04.336Z,33.42
2018-03-27T12:45:33.278Z,33.39
2018-03-27T12:48:04.421Z,34.60
2018-03-27T12:50:33.696Z,33.75
2018-03-27T12:53:02.666Z,33.14
2018-03-27T12:55:32.314Z,31.71
2018-03-27T12:58:03.183Z,31.89
2018-03-27T13:00:32.626Z,32.37
2018-03-27T13:03:01.588Z,32.68
2018-03-27T13:05:32.394Z,32.08
2018-03-27T13:08:04.630Z,32.73
2018-03-27T13:10:35.047Z,33.27
2018-03-27T13:13:05.255Z,33.26
2018-03-27T13:15:34.560Z,33.99
2018-03-27T13:18:06.355Z,35.30
2018-03-27T13:20:35.274Z,35.49
2018-03-27T13:23:05.224Z,34.43
2018-03-27T13:25:37.013Z,33.72
2018-03-27T13:28:05.935Z,34.70
2018-03-27T13:30:35.541Z,35.25
2018-03-27T13:33:05.654Z,35.64
2018-03-27T13:35:34.537Z,35.74
2018-03-27T13:38:05.483Z,35.56
2018-03-27T13:40:34.700Z,35.38
2018-03-27T13:43:04.667Z,35.31
2018-03-27T13:45:33.579Z,35.32
2018-03-27T13:48:03.938Z,35.24
2018-03-27T13:50:36.448Z,34.29
2018-03-27T13:53:06.160Z,33.85
2018-03-27T13:55:35.408Z,34.33
2018-03-27T13:58:05.268Z,34.55
2018-03-27T14:00:34.452Z,34.69
2018-03-27T14:03:05.479Z,34.88
2018-03-27T14:05:34.803Z,36.30
2018-03-27T14:08:07.219Z,36.42
2018-03-27T14:10:36.517Z,36.47
2018-03-27T14:13:05.919Z,36.94
2018-03-27T14:15:34.848Z,37.27
2018-03-27T14:18:05.895Z,37.66
2018-03-27T14:20:34.846Z,38.20
2018-03-27T14:23:03.978Z,38.53
2018-03-27T14:25:33.561Z,38.64
2018-03-27T14:28:03.589Z,38.43
2018-03-27T14:30:32.478Z,38.59
2018-03-27T14:33:01.852Z,38.79
2018-03-27T14:35:30.897Z,39.51
2018-03-27T14:38:00.586Z,39.63
2018-03-27T14:40:29.738Z,39.56
2018-03-27T14:42:58.710Z,40.20
2018-03-27T14:45:27.660Z,41.03
2018-03-27T14:47:57.239Z,41.24
2018-03-27T14:50:26.294Z,41.65
2018-03-27T14:52:55.217Z,41.67
2018-03-27T14:55:24.288Z,41.85
2018-03-27T14:57:53.531Z,42.26
2018-03-27T15:00:23.042Z,42.34
2018-03-27T15:02:52.035Z,42.70
2018-03-27T15:05:21.298Z,43.35
2018-03-27T15:07:50.205Z,43.61
2018-03-27T15:10:19.204Z,44.21
2018-03-27T15:12:48.096Z,44.08
2018-03-27T15:15:16.963Z,44.00
2018-03-27T15:17:46.123Z,43.93
2018-03-27T15:20:15.025Z,44.03
2018-03-27T15:22:43.927Z,43.85
2018-03-27T15:25:13.088Z,43.90
2018-03-27T15:27:41.977Z,44.36
2018-03-27T15:30:10.972Z,44.78
2018-03-27T15:32:40.252Z,45.07
2018-03-27T15:35:09.384Z,45.35
2018-03-27T15:37:38.238Z,45.68
2018-03-27T15:40:07.195Z,45.71
2018-03-27T15:42:36.198Z,46.73
2018-03-27T15:45:05.353Z,47.37
2018-03-27T15:47:34.230Z,46.29
2018-03-27T15:50:05.228Z,45.22
2018-03-27T15:52:34.161Z,45.38
2018-03-27T15:55:04.522Z,45.85
2018-03-27T15:57:33.403Z,46.07
2018-03-27T16:00:05.299Z,46.02
2018-03-27T16:02:34.981Z,46.14
2018-03-27T16:05:05.945Z,45.99
2018-03-27T16:07:34.878Z,45.83
2018-03-27T16:10:05.059Z,46.68
2018-03-27T16:12:34.007Z,47.24
2018-03-27T16:15:03.551Z,47.67
2018-03-27T16:17:32.771Z,47.66
2018-03-27T16:20:02.564Z,48.70
2018-03-27T16:22:31.548Z,48.62
2018-03-27T16:25:00.859Z,49.76
2018-03-27T16:27:29.762Z,49.96
2018-03-27T16:29:58.625Z,50.31
2018-03-27T16:32:27.832Z,50.86
2018-03-27T16:34:56.746Z,50.99
2018-03-27T16:37:26.171Z,52.18
2018-03-27T16:39:55.373Z,51.97
2018-03-27T16:42:24.299Z,51.22
2018-03-27T16:44:53.249Z,51.08
2018-03-27T16:47:22.947Z,50.61
2018-03-27T16:49:51.866Z,50.55
2018-03-27T16:52:21.261Z,51.18
2018-03-27T16:54:50.494Z,51.71
2018-03-27T16:57:19.450Z,51.91
2018-03-27T16:59:48.376Z,52.44
2018-03-27T17:02:18.729Z,52.94
2018-03-27T17:04:47.825Z,53.32
2018-03-27T17:07:17.593Z,53.70
2018-03-27T17:09:48.079Z,54.35
2018-03-27T17:12:17.163Z,54.22
2018-03-27T17:14:46.086Z,54.46
2018-03-27T17:17:15.433Z,54.01
2018-03-27T17:19:44.467Z,54.96
2018-03-27T17:22:13.447Z,54.68
2018-03-27T17:24:42.667Z,55.10
2018-03-27T17:27:11.951Z,55.17
2018-03-27T17:29:40.870Z,55.78
2018-03-27T17:32:10.076Z,55.85
2018-03-27T17:34:38.978Z,56.11
2018-03-27T17:37:07.944Z,55.38
2018-03-27T17:39:37.190Z,56.12
2018-03-27T17:42:06.173Z,56.41
2018-03-27T17:44:35.077Z,56.25
2018-03-27T17:47:04.494Z,56.74
2018-03-27T17:49:33.424Z,57.11
2018-03-27T17:52:03.145Z,57.31
2018-03-27T17:54:32.383Z,57.73
2018-03-27T18:00:00.760Z,58.44
2018-03-27T18:02:29.730Z,58.41
2018-03-27T18:04:58.639Z,58.46
2018-03-27T18:07:27.860Z,58.45
2018-03-27T18:09:56.819Z,59.38
2018-03-27T18:12:25.758Z,58.82
2018-03-27T18:14:55.113Z,58.91
2018-03-27T18:17:24.216Z,59.20
2018-03-27T18:19:53.193Z,59.13
2018-03-27T18:22:22.596Z,59.21
2018-03-27T18:24:51.613Z,59.55
2018-03-27T18:27:20.657Z,59.36
2018-03-27T18:29:49.674Z,60.06
2018-03-27T18:32:18.985Z,59.50
2018-03-27T18:34:47.975Z,61.53
2018-03-27T18:37:17.250Z,62.02
2018-03-27T18:39:46.215Z,61.55
2018-03-27T18:42:15.152Z,61.83
2018-03-27T18:44:44.124Z,61.30
2018-03-27T18:47:13.258Z,62.39
2018-03-27T18:49:42.620Z,62.54
2018-03-27T18:54:51.626Z,63.20
2018-03-27T18:57:20.832Z,63.82
2018-03-27T18:59:50.217Z,62.74
2018-03-27T19:02:19.328Z,64.16
2018-03-27T19:04:48.437Z,65.18
2018-03-27T19:07:19.564Z,64.97
2018-03-27T19:09:48.470Z,64.40
2018-03-27T19:12:17.455Z,64.79
2018-03-27T19:14:46.849Z,65.45
2018-03-27T19:17:16.011Z,65.99
2018-03-27T19:19:44.976Z,66.53
2018-03-27T19:22:28.755Z,66.98
2018-03-27T19:24:58.017Z,68.44
2018-03-27T19:27:28.766Z,68.30
2018-03-27T19:29:57.776Z,68.97
2018-03-27T19:32:27.241Z,68.44
2018-03-27T19:34:56.229Z,69.65
2018-03-27T19:37:25.284Z,70.65
2018-03-27T19:39:54.254Z,70.37
2018-03-27T19:42:24.889Z,70.85
2018-03-27T19:44:53.877Z,71.08
2018-03-27T19:47:22.785Z,71.97
2018-03-27T19:49:51.987Z,70.32
2018-03-27T19:52:21.169Z,70.95
2018-03-27T19:54:50.145Z,70.98
2018-03-27T19:57:19.446Z,71.07
2018-03-27T19:59:48.455Z,71.11
2018-03-27T20:02:18.044Z,71.88
2018-03-27T20:04:47.281Z,72.21
2018-03-27T20:07:17.057Z,72.05
2018-03-27T20:09:45.981Z,71.68
2018-03-27T20:12:15.556Z,72.17
2018-03-27T20:14:44.483Z,72.15
2018-03-27T20:17:13.625Z,72.61
2018-03-27T20:19:42.994Z,71.93
2018-03-27T20:22:12.157Z,71.77
2018-03-27T20:24:41.097Z,71.45
2018-03-27T20:27:10.341Z,71.57
2018-03-27T20:29:39.285Z,71.84
2018-03-27T20:32:08.221Z,71.75
2018-03-27T20:34:37.465Z,71.72
2018-03-27T20:37:06.534Z,72.53
2018-03-27T20:39:36.167Z,73.34
2018-03-27T20:42:06.293Z,73.60
2018-03-27T20:44:35.263Z,74.37
2018-03-27T20:47:04.264Z,74.15
2018-03-27T20:49:33.636Z,74.40
2018-03-27T20:52:03.327Z,74.91
2018-03-27T20:54:32.396Z,74.70
2018-03-27T20:57:01.886Z,74.99
2018-03-27T20:59:31.295Z,74.41
2018-03-27T21:02:00.952Z,74.11
2018-03-27T21:04:30.926Z,74.70
2018-03-27T21:06:59.981Z,75.03
2018-03-27T21:09:28.913Z,74.87
2018-03-27T21:11:58.364Z,74.73
2018-03-27T21:14:27.309Z,74.49
2018-03-27T21:16:56.311Z,74.54
2018-03-27T21:19:25.720Z,74.65
2018-03-27T21:21:54.888Z,74.62
2018-03-27T21:24:23.970Z,74.84
2018-03-27T21:26:53.219Z,74.89
2018-03-27T21:29:22.232Z,74.72
2018-03-27T21:31:51.317Z,74.87
2018-03-27T21:34:20.936Z,74.98
2018-03-27T21:36:49.981Z,74.83
2018-03-27T21:39:19.033Z,75.40
2018-03-27T21:41:48.857Z,75.64
2018-03-27T21:44:17.989Z,75.82
2018-03-27T21:46:47.052Z,76.20
2018-03-27T21:49:16.281Z,76.35
2018-03-27T21:51:45.282Z,76.44
2018-03-27T21:54:14.293Z,76.61
2018-03-27T21:56:43.554Z,76.66
2018-03-27T22:01:39.733Z,76.62
2018-03-27T22:04:09.199Z,76.96
2018-03-27T22:06:38.157Z,77.37
2018-03-27T22:09:07.491Z,77.50
2018-03-27T22:11:36.841Z,77.60
2018-03-27T22:14:05.962Z,77.50
2018-03-27T22:16:35.542Z,77.50
2018-03-27T22:19:04.890Z,77.46
2018-03-27T22:21:34.111Z,77.42
2018-03-27T22:24:04.034Z,77.71
2018-03-27T22:26:32.930Z,78.10
2018-03-27T22:29:02.563Z,78.26
2018-03-27T22:31:32.522Z,78.51
2018-03-27T22:34:02.312Z,78.35
2018-03-27T22:37:33.863Z,78.42
2018-03-27T22:40:03.581Z,78.51
2018-03-27T22:42:33.340Z,78.82
2018-03-27T22:45:03.507Z,78.59
2018-03-27T22:47:32.510Z,78.28
2018-03-27T22:50:03.548Z,78.60
2018-03-27T22:52:32.674Z,78.53
2018-03-27T22:55:02.001Z,78.29
2018-03-27T22:57:31.573Z,78.47
2018-03-27T23:00:00.516Z,78.72
2018-03-27T23:02:29.476Z,78.65
2018-03-27T23:04:58.805Z,78.81
2018-03-27T23:07:27.723Z,79.22
2018-03-27T23:09:56.711Z,79.13
2018-03-27T23:12:25.649Z,78.87
2018-03-27T23:17:20.153Z,79.41
2018-03-27T23:19:49.516Z,79.62
2018-03-27T23:22:27.736Z,79.72
2018-03-27T23:24:57.203Z,80.25
2018-03-27T23:27:26.128Z,80.37
2018-03-27T23:29:55.052Z,80.18
2018-03-27T23:32:24.280Z,80.26
2018-03-27T23:34:53.274Z,80.51
2018-03-27T23:37:22.177Z,80.65
2018-03-27T23:39:51.467Z,80.66
2018-03-27T23:42:20.451Z,80.76
2018-03-27T23:44:49.318Z,80.82
2018-03-27T23:47:18.538Z,81.09
2018-03-27T23:49:47.502Z,81.19
2018-03-27T23:52:16.398Z,81.66
2018-03-27T23:54:45.313Z,81.90
2018-03-27T23:57:14.288Z,82.20
2018-03-27T23:59:43.641Z,82.71
